Time;durP1;ratioP1;P1;durP2;ratioP2;P2;SDS_P1;SDS_P2;PMS_P1;PMS_P2;Temp;Humidity;BMP_temperature;BMP_pressure;BME280_temperature;BME280_humidity;BME280_pressure;Samples;Min_cycle;Max_cycle;Signal;HPM_P1;HPM_P2
2023/06/26 00:00:47;;;;;;;12.02;7.10;;;23.30;88.90;;;;;;4949903;28;207894;-74
2023/06/26 00:03:14;;;;;;;11.32;6.68;;;23.30;89.40;;;;;;4987081;28;20061;-74
2023/06/26 00:05:42;;;;;;;9.95;6.40;;;23.30;89.40;;;;;;4952816;28;213296;-74
2023/06/26 00:08:09;;;;;;;11.63;6.47;;;23.30;89.40;;;;;;5011125;28;20045;-74
2023/06/26 00:10:35;;;;;;;13.00;6.72;;;23.30;89.70;;;;;;4955963;28;207484;-74
2023/06/26 00:13:02;;;;;;;12.93;6.80;;;23.30;89.70;;;;;;5005919;28;20034;-75
2023/06/26 00:15:31;;;;;;;10.95;7.05;;;23.30;89.90;;;;;;4971165;28;219494;-75
2023/06/26 00:17:58;;;;;;;11.27;7.22;;;23.30;90.00;;;;;;5008711;28;20057;-74
2023/06/26 00:20:25;;;;;;;14.18;7.18;;;23.30;90.20;;;;;;4957103;28;206522;-75
2023/06/26 00:22:51;;;;;;;11.55;6.95;;;23.30;90.40;;;;;;4992877;28;20061;-74
2023/06/26 00:25:17;;;;;;;11.48;7.13;;;23.30;90.20;;;;;;4939013;28;208944;-74
2023/06/26 00:27:43;;;;;;;11.70;7.40;;;23.30;90.30;;;;;;4992048;28;20066;-74
2023/06/26 00:30:10;;;;;;;12.18;7.25;;;23.20;90.40;;;;;;4963007;28;207590;-74
2023/06/26 00:32:37;;;;;;;11.57;7.40;;;23.20;90.50;;;;;;4991111;28;20058;-74
2023/06/26 00:35:04;;;;;;;11.35;7.10;;;23.10;90.60;;;;;;4965423;28;211706;-75
2023/06/26 00:37:30;;;;;;;12.77;7.50;;;23.10;90.70;;;;;;5004165;28;20481;-75
2023/06/26 00:39:56;;;;;;;13.00;7.63;;;23.10;90.80;;;;;;4942608;28;223534;-75
2023/06/26 00:42:22;;;;;;;12.45;7.30;;;23.00;90.90;;;;;;4991392;28;20054;-75
2023/06/26 00:44:49;;;;;;;11.30;7.65;;;23.00;91.10;;;;;;4958669;28;209902;-75
2023/06/26 00:47:17;;;;;;;12.35;7.30;;;22.90;91.10;;;;;;5001146;28;20066;-74
2023/06/26 00:49:43;;;;;;;13.85;8.02;;;22.90;91.20;;;;;;4937579;28;204845;-75
2023/06/26 00:52:09;;;;;;;12.32;7.80;;;22.90;91.40;;;;;;4998088;28;20057;-75
2023/06/26 00:54:36;;;;;;;12.70;7.40;;;22.90;91.40;;;;;;4928260;28;207437;-75
2023/06/26 00:57:02;;;;;;;12.40;7.70;;;22.90;91.40;;;;;;4994134;28;20050;-75
2023/06/26 00:59:28;;;;;;;11.35;7.57;;;22.80;91.60;;;;;;4951040;28;210052;-75
2023/06/26 01:01:55;;;;;;;11.77;7.80;;;22.70;91.50;;;;;;4991922;28;20607;-75
2023/06/26 01:04:21;;;;;;;12.13;8.05;;;22.70;91.80;;;;;;4945150;28;106210;-75
2023/06/26 01:06:49;;;;;;;11.32;7.63;;;22.70;91.90;;;;;;4999600;28;20042;-75
2023/06/26 01:09:18;;;;;;;12.77;7.80;;;22.70;92.10;;;;;;4938952;28;207486;-75
2023/06/26 01:11:44;;;;;;;12.00;8.00;;;22.60;92.10;;;;;;5000430;28;20500;-75
2023/06/26 01:14:10;;;;;;;12.35;8.00;;;22.60;92.20;;;;;;4936134;28;207943;-75
2023/06/26 01:16:38;;;;;;;12.80;8.18;;;22.60;92.30;;;;;;4973158;28;20439;-75
2023/06/26 01:19:10;;;;;;;12.68;7.88;;;22.60;92.50;;;;;;4967934;28;207029;-75
2023/06/26 01:21:43;;;;;;;11.82;8.07;;;22.60;92.50;;;;;;4999382;28;20217;-75
2023/06/26 01:24:27;;;;;;;12.10;8.13;;;22.50;92.70;;;;;;4936402;28;210409;-75
2023/06/26 01:26:53;;;;;;;11.18;7.57;;;22.50;92.80;;;;;;4992444;28;20058;-75
2023/06/26 01:29:23;;;;;;;13.07;8.43;;;22.50;93.10;;;;;;4948939;28;207035;-74
2023/06/26 01:31:49;;;;;;;15.18;8.25;;;22.40;93.10;;;;;;5006360;28;20065;-75
2023/06/26 01:34:17;;;;;;;12.15;8.55;;;22.40;93.20;;;;;;4931808;28;206148;-74
2023/06/26 01:36:46;;;;;;;13.43;8.57;;;22.40;93.40;;;;;;5007281;28;20476;-74
2023/06/26 01:39:18;;;;;;;12.60;8.48;;;22.40;93.60;;;;;;4932631;28;211519;-75
2023/06/26 01:41:45;;;;;;;12.85;8.90;;;22.30;93.50;;;;;;4997021;28;20088;-75
2023/06/26 01:44:25;;;;;;;12.60;9.00;;;22.30;93.70;;;;;;4940546;28;206815;-75
2023/06/26 01:46:55;;;;;;;13.30;9.20;;;22.30;93.80;;;;;;4990482;28;20058;-75
2023/06/26 01:49:28;;;;;;;14.05;9.82;;;22.30;94.10;;;;;;4940424;28;216502;-75
2023/06/26 01:52:03;;;;;;;15.25;9.90;;;22.30;94.30;;;;;;4989621;28;20561;-74
2023/06/26 01:54:33;;;;;;;13.93;9.85;;;22.20;94.30;;;;;;4920306;28;209496;-74
2023/06/26 01:56:59;;;;;;;15.25;9.55;;;22.20;94.40;;;;;;4990147;28;20054;-74
2023/06/26 01:59:31;;;;;;;15.77;9.68;;;22.20;94.40;;;;;;4931417;28;220083;-74
2023/06/26 02:01:57;;;;;;;13.82;9.45;;;22.10;94.70;;;;;;4994369;28;20404;-74
2023/06/26 02:04:23;;;;;;;13.52;9.10;;;22.20;95.00;;;;;;4930835;28;213235;-74
2023/06/26 02:06:49;;;;;;;12.82;9.15;;;22.10;94.90;;;;;;5006411;28;20041;-74
2023/06/26 02:09:15;;;;;;;15.55;9.57;;;22.10;95.00;;;;;;4945197;28;208886;-74
2023/06/26 02:11:41;;;;;;;16.20;9.30;;;22.10;95.30;;;;;;5008382;28;20055;-75
2023/06/26 02:14:09;;;;;;;13.38;9.27;;;22.10;95.60;;;;;;4933371;28;210778;-74
2023/06/26 02:16:35;;;;;;;14.85;10.00;;;22.10;95.50;;;;;;5009392;28;20126;-74
2023/06/26 02:19:01;;;;;;;13.15;9.70;;;22.10;95.70;;;;;;4930761;28;218449;-74
2023/06/26 02:21:27;;;;;;;13.50;9.32;;;22.00;96.10;;;;;;4997976;28;20054;-74
2023/06/26 02:23:53;;;;;;;13.32;8.98;;;22.00;95.80;;;;;;4933410;28;207054;-74
2023/06/26 02:26:20;;;;;;;14.85;8.77;;;22.00;96.00;;;;;;4981041;28;20065;-73
2023/06/26 02:28:46;;;;;;;13.10;9.47;;;22.00;96.20;;;;;;4938293;28;207605;-73
2023/06/26 02:31:12;;;;;;;14.02;9.57;;;21.90;96.70;;;;;;5019378;28;20034;-73
2023/06/26 02:33:39;;;;;;;12.93;10.00;;;21.90;96.60;;;;;;4958938;28;224739;-74
2023/06/26 02:36:05;;;;;;;15.02;9.73;;;21.80;96.70;;;;;;4951881;28;20069;-73
2023/06/26 02:38:31;;;;;;;15.50;10.23;;;21.80;97.10;;;;;;4981761;28;20042;-73
2023/06/26 02:40:57;;;;;;;13.27;9.90;;;21.80;97.30;;;;;;4933487;28;208489;-74
2023/06/26 02:43:23;;;;;;;14.23;9.48;;;21.70;97.30;;;;;;4986097;28;20058;-74
2023/06/26 02:45:49;;;;;;;13.77;10.43;;;21.70;97.20;;;;;;4941489;28;213659;-74
2023/06/26 02:48:15;;;;;;;14.45;10.32;;;21.70;97.30;;;;;;4984860;28;20074;-74
2023/06/26 02:50:45;;;;;;;14.57;9.82;;;21.70;97.30;;;;;;4950161;28;216693;-74
2023/06/26 02:53:12;;;;;;;13.93;10.35;;;21.70;97.30;;;;;;4985520;28;20063;-74
2023/06/26 02:55:38;;;;;;;14.25;9.85;;;21.70;97.40;;;;;;4911083;28;275710;-73
2023/06/26 02:58:05;;;;;;;12.00;9.30;;;21.60;97.60;;;;;;5019823;28;20049;-74
2023/06/26 03:00:31;;;;;;;14.07;10.27;;;21.60;97.50;;;;;;4945068;28;209829;-74
2023/06/26 03:02:57;;;;;;;14.13;10.00;;;21.60;97.70;;;;;;4985823;28;20046;-74
2023/06/26 03:05:23;;;;;;;15.45;9.65;;;21.60;97.70;;;;;;4951195;28;212879;-73
2023/06/26 03:07:50;;;;;;;15.25;10.63;;;21.50;97.70;;;;;;4989628;28;20453;-74
2023/06/26 03:10:16;;;;;;;12.90;10.05;;;21.50;98.40;;;;;;4933767;28;209406;-74
2023/06/26 03:12:42;;;;;;;15.77;10.80;;;21.50;98.20;;;;;;5004951;28;20080;-73
2023/06/26 03:15:08;;;;;;;14.80;11.05;;;21.50;98.40;;;;;;4939777;28;206640;-75
2023/06/26 03:17:34;;;;;;;14.77;10.90;;;21.50;98.50;;;;;;4964413;28;20839;-74
2023/06/26 03:20:00;;;;;;;14.88;11.15;;;21.50;98.60;;;;;;4945644;28;207462;-74
2023/06/26 03:22:26;;;;;;;14.73;11.13;;;21.40;99.00;;;;;;4974761;28;20055;-74
2023/06/26 03:24:52;;;;;;;16.30;10.88;;;21.40;99.00;;;;;;4941838;28;209567;-74
2023/06/26 03:27:18;;;;;;;15.38;11.88;;;21.40;99.10;;;;;;4983436;28;20046;-74
2023/06/26 03:29:45;;;;;;;16.85;11.38;;;21.40;99.30;;;;;;4934395;28;207075;-73
2023/06/26 03:32:11;;;;;;;15.60;11.25;;;21.40;99.40;;;;;;4990611;28;20050;-74
2023/06/26 03:34:37;;;;;;;18.38;11.65;;;21.30;99.50;;;;;;4939853;28;218350;-74
2023/06/26 03:37:03;;;;;;;15.05;11.40;;;21.30;99.80;;;;;;5005524;28;20061;-75
2023/06/26 03:39:29;;;;;;;16.13;11.02;;;21.30;99.90;;;;;;4942645;28;214600;-74
2023/06/26 03:42:00;;;;;;;16.13;11.20;;;21.30;99.90;;;;;;4983150;28;20065;-74
2023/06/26 03:44:27;;;;;;;13.70;10.52;;;21.30;99.90;;;;;;4932069;28;210255;-74
2023/06/26 03:46:53;;;;;;;13.32;10.07;;;21.30;99.90;;;;;;4992353;28;20061;-74
2023/06/26 03:49:19;;;;;;;13.85;9.68;;;21.30;99.90;;;;;;4943383;28;208171;-74
2023/06/26 03:51:46;;;;;;;15.00;10.35;;;21.30;99.90;;;;;;5000912;28;20061;-73
2023/06/26 03:54:12;;;;;;;13.00;9.10;;;21.30;99.90;;;;;;4933740;28;207045;-73
2023/06/26 03:56:38;;;;;;;12.82;8.88;;;21.40;99.90;;;;;;5002919;28;20055;-75
2023/06/26 03:59:04;;;;;;;15.48;9.10;;;21.40;99.90;;;;;;4968180;28;163663;-74
2023/06/26 04:01:30;;;;;;;13.68;9.10;;;21.40;99.90;;;;;;4981937;28;20058;-74
2023/06/26 04:03:56;;;;;;;14.32;9.20;;;21.40;99.90;;;;;;4944277;28;207313;-74
2023/06/26 04:06:22;;;;;;;14.43;9.73;;;21.40;99.90;;;;;;5022550;28;20054;-74
2023/06/26 04:08:48;;;;;;;15.45;9.10;;;21.40;99.90;;;;;;4935870;28;213020;-74
2023/06/26 04:11:15;;;;;;;15.05;9.18;;;21.40;99.90;;;;;;4984143;28;20058;-74
2023/06/26 04:13:41;;;;;;;16.05;8.85;;;21.40;99.90;;;;;;4940414;28;208955;-74
2023/06/26 04:16:07;;;;;;;13.55;8.63;;;21.40;99.90;;;;;;5016317;28;20072;-74
2023/06/26 04:18:33;;;;;;;13.95;8.65;;;21.40;99.90;;;;;;4982644;28;206294;-73
2023/06/26 04:21:07;;;;;;;15.80;9.40;;;21.50;99.90;;;;;;4978548;28;191449;-75
2023/06/26 04:23:33;;;;;;;12.98;8.52;;;21.40;99.90;;;;;;4996858;28;224461;-74
2023/06/26 04:26:00;;;;;;;13.20;8.85;;;21.50;99.90;;;;;;4975368;28;175222;-74
2023/06/26 04:28:27;;;;;;;14.38;8.90;;;21.50;99.90;;;;;;5014302;28;20065;-74
2023/06/26 04:30:53;;;;;;;14.80;8.55;;;21.50;99.90;;;;;;4959834;28;214549;-74
2023/06/26 04:33:20;;;;;;;12.80;8.27;;;21.60;99.90;;;;;;4990868;28;20076;-74
2023/06/26 04:35:49;;;;;;;14.35;8.05;;;21.60;99.90;;;;;;4943920;28;232532;-74
2023/06/26 04:38:15;;;;;;;14.85;8.07;;;21.70;99.90;;;;;;4987445;28;20432;-73
2023/06/26 04:40:41;;;;;;;13.02;8.05;;;21.80;99.90;;;;;;4967676;28;217572;-74
2023/06/26 04:43:08;;;;;;;12.02;8.05;;;21.80;99.90;;;;;;4985658;28;20045;-75
2023/06/26 04:45:34;;;;;;;13.10;7.97;;;21.80;99.90;;;;;;4946243;28;209199;-74
2023/06/26 04:48:00;;;;;;;13.75;7.95;;;21.90;99.90;;;;;;5008223;28;20049;-75
2023/06/26 04:50:28;;;;;;;12.73;7.80;;;21.90;99.90;;;;;;4966942;28;222183;-74
2023/06/26 04:52:55;;;;;;;15.02;7.88;;;21.90;99.90;;;;;;4988808;28;20054;-74
2023/06/26 04:55:23;;;;;;;16.13;8.50;;;21.90;99.90;;;;;;4940862;28;207485;-75
2023/06/26 04:57:50;;;;;;;13.77;7.55;;;21.90;99.90;;;;;;4988736;28;20424;-74
2023/06/26 05:00:16;;;;;;;15.65;7.70;;;21.80;99.90;;;;;;4929599;28;205903;-75
2023/06/26 05:02:42;;;;;;;15.52;8.40;;;21.70;99.90;;;;;;4981281;28;20066;-74
2023/06/26 05:05:10;;;;;;;13.75;7.63;;;21.70;99.90;;;;;;4943097;28;76477;-73
2023/06/26 05:07:37;;;;;;;17.50;8.00;;;21.50;99.90;;;;;;4993401;28;20065;-72
2023/06/26 05:10:03;;;;;;;18.27;8.60;;;21.50;99.90;;;;;;4952499;28;207625;-73
2023/06/26 05:12:29;;;;;;;17.02;7.97;;;21.50;99.90;;;;;;4993488;28;20058;-73
2023/06/26 05:14:56;;;;;;;17.48;8.10;;;21.40;99.90;;;;;;4938642;28;209532;-73
2023/06/26 05:17:22;;;;;;;20.13;8.88;;;21.40;99.90;;;;;;4993790;28;20054;-73
2023/06/26 05:19:48;;;;;;;19.75;8.27;;;21.30;99.90;;;;;;4951868;28;213649;-73
2023/06/26 05:22:16;;;;;;;23.38;8.55;;;21.30;99.90;;;;;;5013307;28;20525;-73
2023/06/26 05:24:46;;;;;;;16.00;7.82;;;21.20;99.90;;;;;;4960350;28;207470;-73
2023/06/26 05:27:19;;;;;;;17.88;8.48;;;21.20;99.90;;;;;;4994201;28;20069;-73
2023/06/26 05:29:46;;;;;;;19.65;8.40;;;21.00;99.90;;;;;;4930104;28;222678;-74
2023/06/26 05:32:19;;;;;;;17.98;8.45;;;20.90;99.90;;;;;;4987208;28;20061;-72
2023/06/26 05:34:49;;;;;;;15.80;7.65;;;20.90;99.90;;;;;;4936654;28;209665;-72
2023/06/26 05:37:20;;;;;;;20.42;7.75;;;20.80;99.90;;;;;;5004635;28;20582;-72
2023/06/26 05:39:46;;;;;;;17.45;7.47;;;20.70;99.90;;;;;;4948451;28;208641;-72
2023/06/26 05:42:13;;;;;;;19.67;7.70;;;20.70;99.90;;;;;;4992494;28;20069;-73
2023/06/26 05:44:39;;;;;;;19.05;7.13;;;20.70;99.90;;;;;;4946424;28;207412;-72
2023/06/26 05:47:06;;;;;;;20.58;7.30;;;20.60;99.90;;;;;;4993899;28;20058;-73
2023/06/26 05:49:33;;;;;;;17.17;6.50;;;20.60;99.90;;;;;;4945996;28;209297;-73
2023/06/26 05:52:00;;;;;;;16.02;6.03;;;20.40;99.90;;;;;;5016060;28;20065;-72
2023/06/26 05:54:26;;;;;;;15.02;5.47;;;20.30;99.90;;;;;;4946674;28;208955;-72
2023/06/26 05:56:59;;;;;;;14.63;5.78;;;20.20;99.90;;;;;;5006066;28;20050;-72
2023/06/26 05:59:26;;;;;;;16.77;6.13;;;20.10;99.90;;;;;;4921747;28;217667;-72
2023/06/26 06:01:53;;;;;;;18.08;6.10;;;20.00;99.90;;;;;;4952131;28;20054;-73
2023/06/26 06:04:19;;;;;;;15.10;5.13;;;20.00;99.90;;;;;;4937633;28;221402;-69
2023/06/26 06:06:45;;;;;;;15.50;5.07;;;20.10;99.90;;;;;;5007060;28;20061;-71
2023/06/26 06:09:11;;;;;;;15.60;5.22;;;20.20;99.90;;;;;;4957959;28;207905;-69
2023/06/26 06:11:37;;;;;;;14.77;4.85;;;20.40;99.90;;;;;;5021750;28;20053;-70
2023/06/26 06:14:04;;;;;;;16.42;4.97;;;20.50;99.90;;;;;;4950599;28;208281;-71
2023/06/26 06:16:30;;;;;;;14.68;4.70;;;20.70;99.90;;;;;;4973434;28;20050;-72
2023/06/26 06:18:58;;;;;;;16.13;4.80;;;20.90;99.90;;;;;;4940987;28;238334;-72
2023/06/26 06:21:27;;;;;;;17.65;4.70;;;20.80;99.90;;;;;;5027167;28;20057;-72
2023/06/26 06:23:53;;;;;;;14.10;4.28;;;21.10;99.90;;;;;;4937692;28;247439;-72
2023/06/26 06:26:19;;;;;;;17.95;4.20;;;21.30;99.90;;;;;;4972022;28;20617;-73
2023/06/26 06:28:45;;;;;;;16.87;4.53;;;21.30;99.90;;;;;;4936402;28;209393;-72
2023/06/26 06:31:11;;;;;;;16.83;4.50;;;21.30;99.90;;;;;;5002336;28;20070;-72
2023/06/26 06:33:37;;;;;;;15.10;3.92;;;21.40;99.90;;;;;;4954695;28;222454;-72
2023/06/26 06:36:05;;;;;;;14.55;4.13;;;21.60;99.90;;;;;;5008256;28;271708;-72
2023/06/26 06:38:31;;;;;;;13.77;3.60;;;21.60;99.90;;;;;;5008437;28;20061;-72
2023/06/26 06:40:57;;;;;;;13.98;3.70;;;21.50;99.90;;;;;;4953411;28;206438;-72
2023/06/26 06:43:23;;;;;;;12.57;3.63;;;21.50;99.90;;;;;;4989739;28;20061;-72
2023/06/26 06:45:49;;;;;;;15.10;3.42;;;21.70;99.90;;;;;;4957409;28;207281;-72
2023/06/26 06:48:16;;;;;;;12.00;3.25;;;21.70;99.90;;;;;;4990672;28;20054;-72
2023/06/26 06:50:42;;;;;;;12.45;3.20;;;21.70;99.90;;;;;;4950668;28;207418;-72
2023/06/26 06:53:08;;;;;;;15.70;3.42;;;21.40;99.90;;;;;;4991606;28;20066;-72
2023/06/26 06:55:34;;;;;;;14.90;3.28;;;21.20;99.90;;;;;;4946066;28;206540;-72
2023/06/26 06:58:00;;;;;;;13.07;3.20;;;21.30;99.90;;;;;;4991476;28;20084;-73
2023/06/26 07:00:26;;;;;;;11.35;2.97;;;21.70;99.90;;;;;;4963588;28;175292;-73
2023/06/26 07:02:53;;;;;;;11.10;2.80;;;21.90;99.90;;;;;;4989349;28;20054;-73
2023/06/26 07:05:19;;;;;;;10.75;2.88;;;22.10;99.90;;;;;;4945595;28;207875;-73
2023/06/26 07:07:45;;;;;;;13.35;2.88;;;22.30;99.90;;;;;;4994288;28;20058;-73
2023/06/26 07:10:14;;;;;;;13.70;2.85;;;22.60;99.90;;;;;;4964727;28;208003;-73
2023/06/26 07:12:40;;;;;;;11.85;2.50;;;22.70;99.70;;;;;;4995493;28;20058;-74
2023/06/26 07:15:07;;;;;;;9.60;2.28;;;22.70;99.70;;;;;;4953660;28;206934;-73
2023/06/26 07:17:34;;;;;;;11.88;2.80;;;22.70;99.20;;;;;;5016138;28;20055;-72
2023/06/26 07:20:06;;;;;;;14.07;2.50;;;22.60;99.40;;;;;;4951065;28;207761;-72
2023/06/26 07:22:33;;;;;;;10.80;2.40;;;22.50;99.60;;;;;;4986287;28;20061;-72
2023/06/26 07:25:10;;;;;;;12.25;2.40;;;22.70;99.80;;;;;;4944480;28;207047;-72
2023/06/26 07:27:37;;;;;;;10.15;2.35;;;22.90;99.20;;;;;;5000138;28;20058;-72
2023/06/26 07:30:03;;;;;;;10.45;2.33;;;23.10;98.80;;;;;;4960516;28;206948;-73
2023/06/26 07:32:30;;;;;;;11.32;2.25;;;23.40;98.30;;;;;;5024448;28;20042;-72
2023/06/26 07:34:56;;;;;;;10.05;2.60;;;23.30;98.50;;;;;;4971697;28;206607;-73
2023/06/26 07:37:22;;;;;;;9.75;1.95;;;23.60;98.60;;;;;;5002283;28;20069;-72
2023/06/26 07:39:51;;;;;;;10.35;2.10;;;23.70;97.90;;;;;;4957294;28;216215;-73
2023/06/26 07:42:17;;;;;;;9.50;1.90;;;23.70;97.80;;;;;;5004272;28;20065;-72
2023/06/26 07:44:44;;;;;;;9.82;2.20;;;23.80;97.20;;;;;;4945629;28;213117;-72
2023/06/26 07:47:10;;;;;;;12.43;2.28;;;24.00;97.70;;;;;;4992862;28;20058;-73
2023/06/26 07:49:36;;;;;;;8.50;2.05;;;23.90;97.20;;;;;;4944021;28;212314;-72
2023/06/26 07:52:03;;;;;;;11.65;2.47;;;23.80;96.80;;;;;;4999200;28;20054;-73
2023/06/26 07:54:29;;;;;;;12.02;2.55;;;23.60;97.50;;;;;;4936675;28;249265;-72
2023/06/26 07:56:58;;;;;;;13.18;2.38;;;23.30;97.60;;;;;;5023959;28;20046;-73
2023/06/26 07:59:26;;;;;;;10.93;2.15;;;23.10;97.70;;;;;;4953376;28;209633;-72
2023/06/26 08:01:53;;;;;;;8.18;2.00;;;23.00;98.20;;;;;;5001182;28;20084;-73
2023/06/26 08:04:21;;;;;;;10.82;1.90;;;23.00;98.20;;;;;;4943086;28;207379;-72
2023/06/26 08:06:52;;;;;;;9.85;2.55;;;22.60;97.70;;;;;;5003236;28;20058;-71
2023/06/26 08:09:20;;;;;;;7.93;1.70;;;22.70;98.10;;;;;;4951051;28;217285;-72
2023/06/26 08:11:46;;;;;;;9.85;1.77;;;22.80;97.20;;;;;;5044999;28;20061;-72
2023/06/26 08:14:12;;;;;;;10.75;2.13;;;23.20;97.50;;;;;;4953616;28;218617;-72
2023/06/26 08:16:39;;;;;;;7.53;1.65;;;23.50;96.90;;;;;;5009044;28;20140;-72
2023/06/26 08:19:06;;;;;;;7.80;1.70;;;23.40;96.90;;;;;;4947630;28;207197;-72
2023/06/26 08:21:32;;;;;;;9.23;1.80;;;23.20;97.10;;;;;;5009516;28;20057;-73
2023/06/26 08:23:58;;;;;;;7.47;1.65;;;23.50;96.70;;;;;;4964123;28;209508;-72
2023/06/26 08:26:24;;;;;;;8.38;1.80;;;23.60;96.70;;;;;;4998988;28;20046;-73
2023/06/26 08:28:50;;;;;;;7.57;1.70;;;24.00;95.90;;;;;;4934828;28;212914;-73
2023/06/26 08:31:17;;;;;;;7.50;1.60;;;23.80;95.40;;;;;;4994435;28;20058;-73
2023/06/26 08:33:43;;;;;;;7.03;1.80;;;24.20;95.40;;;;;;4931051;28;208146;-71
2023/06/26 08:36:09;;;;;;;6.72;1.80;;;24.70;95.80;;;;;;5022263;28;20065;-72
2023/06/26 08:38:35;;;;;;;9.93;2.17;;;24.40;95.30;;;;;;4968311;28;231037;-72
2023/06/26 08:41:02;;;;;;;10.50;2.08;;;24.30;95.30;;;;;;4997449;28;126109;-72
2023/06/26 08:43:31;;;;;;;8.40;1.80;;;24.00;96.10;;;;;;4990005;28;20061;-72
2023/06/26 08:45:59;;;;;;;9.05;2.08;;;24.00;96.10;;;;;;4956977;28;206472;-72
2023/06/26 08:48:25;;;;;;;9.85;1.90;;;23.00;96.30;;;;;;5011144;28;20494;-72
2023/06/26 08:50:53;;;;;;;10.20;2.03;;;22.80;96.90;;;;;;4945416;28;211268;-71
2023/06/26 08:53:41;;;;;;;7.95;2.00;;;22.50;97.30;;;;;;5008276;28;20570;-72
2023/06/26 08:56:08;;;;;;;7.30;1.92;;;22.90;97.30;;;;;;4946926;28;20119;-71
2023/06/26 08:58:37;;;;;;;7.50;1.80;;;22.90;97.20;;;;;;4979222;28;207589;-71
2023/06/26 09:01:05;;;;;;;10.75;2.45;;;22.60;97.30;;;;;;4930338;28;209990;-72
2023/06/26 09:03:32;;;;;;;9.82;2.53;;;22.90;97.20;;;;;;4992363;28;20122;-71
2023/06/26 09:05:59;;;;;;;8.40;2.00;;;23.00;96.90;;;;;;4953315;28;20060;-72
2023/06/26 09:08:25;;;;;;;9.23;2.22;;;23.00;97.10;;;;;;4992406;28;20065;-72
2023/06/26 09:10:52;;;;;;;9.25;2.03;;;23.40;96.40;;;;;;4939149;28;209154;-72
2023/06/26 09:13:18;;;;;;;8.63;2.00;;;24.00;96.10;;;;;;4986076;28;20070;-72
2023/06/26 09:15:45;;;;;;;7.93;2.05;;;24.80;95.30;;;;;;4951670;28;209715;-72
2023/06/26 09:18:12;;;;;;;9.32;2.17;;;24.10;95.30;;;;;;4992514;28;20046;-72
2023/06/26 09:20:38;;;;;;;9.38;2.05;;;23.90;94.80;;;;;;4961998;28;228156;-72
2023/06/26 09:23:05;;;;;;;7.75;1.92;;;24.20;94.60;;;;;;4986223;28;20046;-72
2023/06/26 09:25:31;;;;;;;8.43;2.30;;;24.60;94.20;;;;;;4963573;28;208940;-72
2023/06/26 09:27:58;;;;;;;11.18;1.98;;;24.50;94.70;;;;;;5004858;28;20046;-72
2023/06/26 09:30:25;;;;;;;8.73;2.10;;;25.20;94.40;;;;;;4967521;28;207915;-72
2023/06/26 09:32:54;;;;;;;12.85;2.30;;;25.20;94.00;;;;;;5012685;28;20053;-73
2023/06/26 09:35:20;;;;;;;9.98;2.17;;;25.10;93.80;;;;;;4966033;28;206908;-73
2023/06/26 09:37:46;;;;;;;10.38;2.25;;;25.50;93.20;;;;;;5011523;28;20053;-72
2023/06/26 09:40:13;;;;;;;9.75;2.33;;;25.70;93.40;;;;;;4939060;28;212585;-73
2023/06/26 09:42:40;;;;;;;8.23;2.00;;;26.10;93.30;;;;;;4999308;28;20053;-73
2023/06/26 09:45:07;;;;;;;13.13;2.25;;;25.50;93.50;;;;;;4964862;28;208468;-73
2023/06/26 09:47:34;;;;;;;13.00;2.53;;;24.70;93.90;;;;;;5008996;28;20499;-73
2023/06/26 09:50:03;;;;;;;11.60;2.45;;;24.70;94.40;;;;;;4964898;28;212264;-73
2023/06/26 09:52:30;;;;;;;8.68;2.30;;;24.30;94.50;;;;;;5004177;28;20065;-72
2023/06/26 09:55:11;;;;;;;9.90;2.72;;;23.90;94.80;;;;;;4943576;28;210750;-72
2023/06/26 09:57:39;;;;;;;7.85;2.30;;;23.60;95.30;;;;;;5009067;28;20054;-71
2023/06/26 10:00:07;;;;;;;8.27;2.25;;;24.30;94.70;;;;;;4951456;28;207437;-72
2023/06/26 10:02:34;;;;;;;11.25;2.40;;;24.90;93.10;;;;;;4992412;28;20034;-71
2023/06/26 10:05:00;;;;;;;9.10;2.47;;;25.40;93.40;;;;;;4958421;28;219236;-72
2023/06/26 10:07:26;;;;;;;11.75;2.50;;;25.60;93.50;;;;;;5015397;28;20058;-70
2023/06/26 10:09:55;;;;;;;9.02;2.45;;;24.80;93.20;;;;;;4957534;28;207769;-70
2023/06/26 10:12:29;;;;;;;10.45;2.40;;;23.90;94.00;;;;;;5014728;28;20069;-71
2023/06/26 10:14:57;;;;;;;8.63;2.28;;;23.20;94.80;;;;;;4965664;28;208857;-70
2023/06/26 10:17:29;;;;;;;11.48;2.40;;;24.10;94.30;;;;;;5010784;28;20051;-72
2023/06/26 10:19:56;;;;;;;8.55;2.28;;;24.80;93.70;;;;;;4966629;28;217289;-74
2023/06/26 10:22:27;;;;;;;11.40;2.75;;;25.40;93.10;;;;;;5004740;28;20054;-72
2023/06/26 10:24:57;;;;;;;10.30;2.47;;;25.70;92.20;;;;;;4945340;28;213710;-71
2023/06/26 10:27:27;;;;;;;8.32;2.28;;;26.30;92.10;;;;;;4995128;28;20065;-72
2023/06/26 10:29:56;;;;;;;10.40;2.60;;;25.90;91.80;;;;;;4943991;28;218426;-72
2023/06/26 10:32:24;;;;;;;8.98;2.13;;;25.10;92.50;;;;;;4984543;28;20522;-71
2023/06/26 10:34:51;;;;;;;10.23;2.22;;;24.70;92.50;;;;;;4925003;28;209512;-72
2023/06/26 10:37:18;;;;;;;8.82;2.00;;;25.30;92.40;;;;;;4964262;28;20062;-71
2023/06/26 10:39:54;;;;;;;7.43;1.90;;;26.10;91.60;;;;;;4939504;28;207482;-73
2023/06/26 10:42:35;;;;;;;8.35;2.00;;;26.10;90.40;;;;;;4983968;28;20055;-72
2023/06/26 10:45:16;;;;;;;8.75;2.20;;;25.60;90.80;;;;;;4943002;28;216003;-72
2023/06/26 10:47:45;;;;;;;9.35;2.00;;;24.60;91.70;;;;;;4985653;28;20065;-71
2023/06/26 10:50:18;;;;;;;10.80;2.53;;;24.10;92.20;;;;;;4927839;28;209277;-71
2023/06/26 10:52:45;;;;;;;9.63;1.95;;;24.10;92.70;;;;;;4988885;28;20929;-71
2023/06/26 10:55:13;;;;;;;9.50;1.90;;;25.10;92.10;;;;;;4944311;28;213613;-71
2023/06/26 10:57:39;;;;;;;9.10;2.10;;;25.10;92.00;;;;;;4990388;28;20042;-72
2023/06/26 11:00:14;;;;;;;9.00;2.03;;;24.60;91.90;;;;;;4935789;28;206872;-72
2023/06/26 11:02:51;;;;;;;8.63;2.20;;;24.10;92.60;;;;;;4983399;28;20058;-70
2023/06/26 11:05:32;;;;;;;8.77;2.10;;;23.50;93.50;;;;;;4938694;28;207017;-72
2023/06/26 11:08:09;;;;;;;7.53;2.15;;;24.80;92.50;;;;;;4990192;28;20058;-73
2023/06/26 11:10:50;;;;;;;10.27;2.42;;;24.70;93.00;;;;;;4937786;28;206982;-73
2023/06/26 11:13:18;;;;;;;10.90;2.05;;;25.20;92.20;;;;;;4987766;28;20082;-72
2023/06/26 11:15:44;;;;;;;12.85;2.30;;;24.90;92.00;;;;;;4949185;28;207077;-71
2023/06/26 11:18:12;;;;;;;9.93;2.03;;;24.40;92.30;;;;;;4990245;28;20512;-72
2023/06/26 11:20:38;;;;;;;7.90;1.65;;;24.60;92.50;;;;;;4949855;28;245733;-73
2023/06/26 11:23:06;;;;;;;8.55;1.95;;;24.70;91.80;;;;;;4989277;28;20428;-75
2023/06/26 11:25:36;;;;;;;8.98;2.05;;;24.90;91.80;;;;;;4939019;28;215210;-72
2023/06/26 11:28:04;;;;;;;10.07;2.00;;;24.90;91.90;;;;;;4985852;28;20046;-73
2023/06/26 11:30:31;;;;;;;9.50;2.17;;;24.90;92.10;;;;;;4959534;28;210050;-72
2023/06/26 11:33:10;;;;;;;9.05;1.73;;;24.70;92.00;;;;;;4988147;28;20065;-73
2023/06/26 11:35:37;;;;;;;7.97;2.05;;;24.00;91.50;;;;;;4951898;28;205182;-72
2023/06/26 11:38:06;;;;;;;10.40;1.88;;;23.40;92.00;;;;;;4989119;28;20050;-72
2023/06/26 11:40:34;;;;;;;7.75;1.90;;;23.50;92.30;;;;;;4946922;28;207147;-73
2023/06/26 11:43:03;;;;;;;9.82;1.90;;;24.20;92.00;;;;;;4988667;28;20050;-73
2023/06/26 11:45:31;;;;;;;10.43;2.20;;;24.90;91.90;;;;;;4961341;28;214897;-73
2023/06/26 11:47:58;;;;;;;7.80;1.73;;;24.90;91.90;;;;;;4990891;28;20046;-72
2023/06/26 11:50:25;;;;;;;8.80;1.63;;;24.20;91.70;;;;;;4963439;28;212505;-72
2023/06/26 11:52:56;;;;;;;13.85;1.98;;;23.80;91.80;;;;;;4994694;28;20621;-74
2023/06/26 11:55:25;;;;;;;;;;;24.00;92.10;;;;;;4953005;28;207841;-73
2023/06/26 11:57:56;;;;;;;6.47;1.55;;;23.90;92.20;;;;;;4992531;28;19917;-73
2023/06/26 12:00:23;;;;;;;10.35;1.65;;;23.70;91.40;;;;;;4954490;28;208171;-72
2023/06/26 12:02:49;;;;;;;8.65;1.45;;;23.70;92.10;;;;;;4988521;28;20054;-73
2023/06/26 12:05:16;;;;;;;8.18;1.70;;;23.60;91.90;;;;;;4957495;28;164065;-74
2023/06/26 12:07:45;;;;;;;9.77;1.90;;;23.70;92.00;;;;;;4990831;28;20066;-72
2023/06/26 12:10:11;;;;;;;8.25;1.48;;;24.00;92.10;;;;;;4954024;28;211018;-72
2023/06/26 12:12:38;;;;;;;9.15;1.27;;;23.60;91.90;;;;;;5017719;28;20054;-74
2023/06/26 12:15:07;;;;;;;9.15;1.48;;;23.10;91.50;;;;;;4943409;28;206303;-72
2023/06/26 12:17:36;;;;;;;6.35;1.38;;;23.50;91.30;;;;;;4987826;28;20058;-72
2023/06/26 12:20:05;;;;;;;6.75;1.30;;;23.80;90.50;;;;;;4939411;28;221788;-73
2023/06/26 12:22:35;;;;;;;8.60;1.60;;;23.90;90.50;;;;;;5011696;28;20046;-73
2023/06/26 12:25:01;;;;;;;7.72;1.33;;;24.00;90.30;;;;;;4953814;28;208832;-74
2023/06/26 12:27:28;;;;;;;8.60;1.63;;;24.30;90.20;;;;;;4999129;28;20054;-74
2023/06/26 12:29:55;;;;;;;6.38;1.52;;;24.30;89.30;;;;;;4951666;28;214858;-74
2023/06/26 12:32:28;;;;;;;7.78;1.48;;;24.00;90.00;;;;;;4991488;28;20498;-74
2023/06/26 12:34:57;;;;;;;8.57;1.67;;;24.10;90.50;;;;;;4949337;28;210124;-73